createdAt,value
2019-02-05T00:07:13.540Z,22.83
2019-02-05T00:12:38.907Z,22.10
2019-02-05T00:15:01.676Z,22.80
2019-02-05T00:20:25.853Z,20.80
2019-02-05T00:23:21.580Z,21.47
2019-02-05T00:26:06.225Z,21.70
2019-02-05T00:32:00.007Z,24.27
2019-02-05T00:34:56.380Z,23.23
2019-02-05T00:38:43.018Z,23.03
2019-02-05T00:41:56.924Z,23.80
2019-02-05T00:54:31.678Z,23.33
2019-02-05T00:57:32.518Z,23.00
2019-02-05T01:03:40.913Z,23.00
2019-02-05T01:07:10.211Z,21.63
2019-02-05T01:10:15.157Z,21.93
2019-02-05T01:13:05.549Z,21.00
2019-02-05T01:19:35.617Z,22.67
2019-02-05T01:26:06.780Z,21.17
2019-02-05T01:28:50.498Z,21.17
2019-02-05T01:34:46.136Z,21.73
2019-02-05T01:37:39.708Z,22.03
2019-02-05T01:40:16.401Z,22.17
2019-02-05T01:42:51.077Z,22.50
2019-02-05T01:46:11.773Z,22.57
2019-02-05T01:49:07.637Z,21.80
2019-02-05T01:52:00.132Z,22.73
2019-02-05T01:55:03.164Z,22.17
2019-02-05T01:57:58.608Z,21.47
2019-02-05T02:00:42.932Z,21.70
2019-02-05T02:04:14.358Z,20.67
2019-02-05T02:12:46.208Z,22.33
2019-02-05T02:15:38.657Z,21.60
2019-02-05T02:22:32.698Z,23.77
2019-02-05T02:29:50.794Z,23.27
2019-02-05T02:39:15.481Z,23.37
2019-02-05T02:49:28.599Z,24.43
2019-02-05T02:52:42.533Z,25.93
2019-02-05T02:59:41.653Z,23.53
2019-02-05T03:05:05.257Z,23.97
2019-02-05T03:06:57.954Z,23.77
2019-02-05T03:10:12.442Z,24.33
2019-02-05T03:13:13.981Z,24.27
2019-02-05T03:15:56.405Z,24.10
2019-02-05T03:18:29.565Z,24.87
2019-02-05T03:21:23.094Z,25.53
2019-02-05T03:24:11.145Z,25.40
2019-02-05T03:27:17.158Z,25.90
2019-02-05T03:29:57.494Z,25.77
2019-02-05T03:32:40.925Z,27.20
2019-02-05T03:36:13.612Z,26.23
2019-02-05T03:38:44.587Z,26.20
2019-02-05T03:41:28.811Z,26.57
2019-02-05T03:43:57.382Z,27.27
2019-02-05T03:57:38.048Z,25.33
2019-02-05T04:04:43.319Z,28.20
2019-02-05T04:08:17.617Z,26.93
2019-02-05T04:15:53.108Z,25.47
2019-02-05T04:19:11.358Z,23.60
2019-02-05T04:23:10.688Z,24.17
2019-02-05T04:26:31.773Z,24.47
2019-02-05T04:37:26.404Z,23.40
2019-02-05T04:40:34.239Z,23.43
2019-02-05T04:43:53.030Z,24.93
2019-02-05T04:47:31.017Z,23.87
2019-02-05T04:54:56.241Z,22.67
2019-02-05T04:58:13.542Z,23.40
2019-02-05T05:05:18.370Z,21.30
2019-02-05T05:08:24.614Z,21.70
2019-02-05T05:14:49.725Z,20.27
2019-02-05T05:29:21.627Z,22.17
2019-02-05T05:32:47.976Z,22.37
2019-02-05T05:35:21.628Z,22.13
2019-02-05T05:38:31.909Z,17.90
2019-02-05T05:41:13.979Z,19.83
2019-02-05T05:51:35.087Z,19.37
2019-02-05T05:54:34.514Z,18.20
2019-02-05T06:01:21.253Z,17.13
2019-02-05T06:07:22.404Z,19.17
2019-02-05T06:10:15.365Z,17.37
2019-02-05T06:19:12.870Z,18.63
2019-02-05T06:22:51.609Z,18.37
2019-02-05T06:26:14.916Z,17.30
2019-02-05T06:28:57.588Z,19.37
2019-02-05T06:34:12.621Z,18.90
2019-02-05T06:36:52.775Z,19.30
2019-02-05T06:39:43.396Z,18.67
2019-02-05T06:42:25.489Z,18.10
2019-02-05T06:45:21.246Z,19.73
2019-02-05T06:47:52.998Z,19.90
2019-02-05T06:50:36.865Z,19.03
2019-02-05T06:53:24.069Z,20.00
2019-02-05T06:56:04.984Z,18.90
2019-02-05T06:59:06.331Z,19.07
2019-02-05T07:01:36.655Z,19.07
2019-02-05T07:04:05.449Z,18.97
2019-02-05T07:06:35.076Z,19.73
2019-02-05T07:09:10.857Z,20.00
2019-02-05T07:12:07.141Z,19.07
2019-02-05T07:14:43.115Z,18.77
2019-02-05T07:17:26.818Z,19.17
2019-02-05T07:20:30.756Z,19.10
2019-02-05T07:23:35.073Z,18.33
2019-02-05T07:26:49.634Z,19.17
2019-02-05T07:29:49.555Z,19.43
2019-02-05T07:32:50.624Z,20.57
2019-02-05T07:38:46.148Z,20.40
2019-02-05T07:42:08.250Z,20.80
2019-02-05T07:44:28.555Z,21.27
2019-02-05T07:51:01.464Z,21.90
2019-02-05T07:54:08.006Z,21.27
2019-02-05T07:56:54.161Z,23.20
2019-02-05T07:59:24.524Z,23.17
2019-02-05T08:02:06.240Z,23.90
2019-02-05T08:04:46.586Z,22.80
2019-02-05T08:07:33.163Z,22.90
2019-02-05T08:10:01.348Z,19.77
2019-02-05T08:12:54.587Z,20.70
2019-02-05T08:15:31.945Z,22.10
2019-02-05T08:18:12.581Z,19.60
2019-02-05T08:21:08.277Z,20.03
2019-02-05T08:23:34.798Z,18.97
2019-02-05T08:26:11.166Z,18.07
2019-02-05T08:28:41.137Z,18.17
2019-02-05T08:31:29.047Z,19.23
2019-02-05T08:34:03.949Z,20.03
2019-02-05T08:36:32.452Z,19.73
2019-02-05T08:39:12.674Z,20.90
2019-02-05T08:45:14.329Z,19.97
2019-02-05T08:47:46.676Z,19.43
2019-02-05T08:50:19.793Z,22.00
2019-02-05T08:52:48.449Z,20.57
2019-02-05T08:55:25.304Z,19.40
2019-02-05T08:57:54.891Z,21.07
2019-02-05T09:00:24.988Z,20.37
2019-02-05T09:02:53.610Z,19.47
2019-02-05T09:05:22.915Z,20.97
2019-02-05T09:07:51.388Z,21.20
2019-02-05T09:13:38.264Z,19.20
2019-02-05T09:16:49.624Z,19.37
2019-02-05T09:19:32.985Z,19.17
2019-02-05T09:22:08.427Z,20.73
2019-02-05T09:24:36.623Z,21.23
2019-02-05T09:27:25.113Z,21.47
2019-02-05T09:32:37.758Z,22.07
2019-02-05T09:35:06.810Z,19.70
2019-02-05T09:37:35.021Z,20.53
2019-02-05T09:40:02.814Z,19.67
2019-02-05T09:42:30.544Z,20.10
2019-02-05T09:44:58.306Z,18.97
2019-02-05T09:47:26.154Z,19.80
2019-02-05T09:49:54.290Z,19.97
2019-02-05T09:52:22.084Z,21.10
2019-02-05T09:54:50.378Z,18.87
2019-02-05T09:57:18.247Z,20.37
2019-02-05T09:59:46.060Z,19.90
2019-02-05T10:02:14.891Z,19.93
2019-02-05T10:04:45.121Z,20.13
2019-02-05T10:07:14.620Z,19.40
2019-02-05T10:09:43.636Z,20.77
2019-02-05T10:12:11.897Z,19.67
2019-02-05T10:14:45.697Z,21.23
2019-02-05T10:17:14.814Z,21.17
2019-02-05T10:19:57.323Z,20.73
2019-02-05T10:36:19.144Z,20.53
2019-02-05T10:48:21.060Z,23.05
2019-02-05T11:11:01.507Z,21.07
2019-02-05T11:18:32.146Z,20.33
2019-02-05T11:21:44.038Z,20.03
2019-02-05T11:28:54.493Z,20.60
2019-02-05T11:34:43.508Z,18.65
2019-02-05T11:37:43.603Z,18.00
2019-02-05T11:44:19.881Z,20.07
2019-02-05T11:49:33.810Z,20.47
2019-02-05T11:52:04.796Z,20.37
2019-02-05T11:54:36.848Z,20.50
2019-02-05T11:58:02.839Z,19.90
2019-02-05T13:12:39.153Z,19.63
2019-02-05T13:15:07.253Z,19.23
2019-02-05T13:17:36.002Z,20.20
2019-02-05T13:20:12.382Z,20.87
2019-02-05T13:22:49.172Z,20.00
2019-02-05T13:25:26.240Z,18.83
2019-02-05T13:27:55.773Z,20.23
2019-02-05T13:30:30.917Z,19.57
2019-02-05T13:33:00.683Z,20.07
2019-02-05T13:35:35.840Z,19.57
2019-02-05T13:38:26.261Z,19.87
2019-02-05T13:41:07.169Z,20.77
2019-02-05T13:43:45.876Z,19.87
2019-02-05T13:46:19.589Z,20.30
2019-02-05T13:48:51.578Z,19.63
2019-02-05T13:51:34.361Z,20.37
2019-02-05T13:57:48.382Z,22.10
2019-02-05T14:00:37.497Z,20.30
2019-02-05T14:03:11.305Z,22.30
2019-02-05T14:06:10.818Z,22.43
2019-02-05T14:24:27.825Z,21.27
2019-02-05T14:36:39.265Z,21.07
2019-02-05T14:44:38.020Z,21.27
2019-02-05T14:50:59.443Z,21.90
2019-02-05T15:01:07.676Z,25.00
2019-02-05T15:04:29.426Z,25.17
2019-02-05T15:06:57.646Z,24.77
2019-02-05T15:09:25.512Z,23.07
2019-02-05T15:11:53.358Z,33.47
2019-02-05T15:14:21.693Z,25.83
2019-02-05T15:16:52.368Z,26.57
2019-02-05T15:19:20.362Z,25.80
2019-02-05T15:21:48.342Z,27.37
2019-02-05T15:24:16.987Z,26.83
2019-02-05T15:26:45.628Z,26.73
2019-02-05T15:29:13.296Z,26.73
2019-02-05T15:31:41.274Z,26.50
2019-02-05T15:34:21.284Z,27.00
2019-02-05T15:36:50.243Z,28.77
2019-02-05T15:39:18.282Z,29.67
2019-02-05T15:41:48.463Z,29.10
2019-02-05T15:44:16.588Z,28.73
2019-02-05T15:46:44.335Z,29.80
2019-02-05T15:49:12.608Z,28.10
2019-02-05T15:51:40.525Z,28.87
2019-02-05T15:54:08.415Z,29.40
2019-02-05T15:56:36.190Z,29.07
2019-02-05T15:59:07.534Z,28.87
2019-02-05T16:01:39.433Z,29.07
2019-02-05T16:04:08.119Z,28.90
2019-02-05T16:06:37.062Z,30.33
2019-02-05T16:09:10.708Z,29.43
2019-02-05T16:11:49.559Z,29.70
2019-02-05T16:14:22.822Z,31.10
2019-02-05T16:16:57.530Z,31.00
2019-02-05T16:19:34.101Z,29.77
2019-02-05T16:22:13.663Z,29.23
2019-02-05T16:24:49.873Z,30.57
2019-02-05T16:27:25.649Z,29.93
2019-02-05T16:29:56.204Z,28.97
2019-02-05T16:36:06.436Z,29.97
2019-02-05T16:38:38.601Z,29.53
2019-02-05T16:41:08.891Z,30.70
2019-02-05T16:43:48.546Z,31.83
2019-02-05T16:46:41.612Z,31.47
2019-02-05T16:49:23.729Z,32.00
2019-02-05T16:55:40.525Z,31.67
2019-02-05T16:58:32.170Z,31.07
2019-02-05T17:01:05.312Z,30.67
2019-02-05T17:04:19.683Z,33.33
2019-02-05T17:07:03.915Z,32.93
2019-02-05T17:09:45.123Z,31.60
2019-02-05T17:12:20.495Z,32.70
2019-02-05T17:14:49.307Z,33.50
2019-02-05T17:17:20.690Z,32.47
2019-02-05T17:22:48.410Z,32.30
2019-02-05T17:27:46.688Z,31.43
2019-02-05T17:30:20.870Z,31.57
2019-02-05T17:33:01.464Z,33.33
2019-02-05T17:35:39.645Z,34.20
2019-02-05T17:38:11.202Z,35.93
2019-02-05T17:40:54.579Z,36.50
2019-02-05T17:43:23.224Z,36.83
2019-02-05T17:46:20.982Z,36.23
2019-02-05T17:48:59.845Z,37.13
2019-02-05T17:54:05.502Z,35.53
2019-02-05T17:56:37.026Z,35.43
2019-02-05T17:59:06.564Z,35.50
2019-02-05T18:01:35.557Z,36.33
2019-02-05T18:04:08.343Z,38.43
2019-02-05T18:06:36.472Z,40.27
2019-02-05T18:09:09.198Z,39.80
2019-02-05T18:11:55.533Z,38.57
2019-02-05T18:14:34.940Z,38.27
2019-02-05T18:17:07.441Z,39.30
2019-02-05T18:19:38.895Z,40.97
2019-02-05T18:22:32.507Z,40.67
2019-02-05T18:25:06.290Z,41.27
2019-02-05T18:27:34.652Z,42.27
2019-02-05T18:30:07.627Z,41.17
2019-02-05T18:35:27.434Z,42.80
2019-02-05T18:40:41.289Z,42.77
2019-02-05T18:43:09.424Z,45.07
2019-02-05T18:45:41.179Z,44.93
2019-02-05T18:48:12.817Z,43.67
2019-02-05T18:50:41.706Z,45.60
2019-02-05T18:53:12.052Z,44.07
2019-02-05T18:55:41.367Z,43.50
2019-02-05T18:58:09.999Z,45.60
2019-02-05T19:00:43.350Z,43.03
2019-02-05T19:03:16.277Z,43.93
2019-02-05T19:05:45.486Z,40.43
2019-02-05T19:08:19.335Z,43.83
2019-02-05T19:10:47.649Z,45.90
2019-02-05T19:13:15.878Z,45.90
2019-02-05T19:16:07.868Z,45.57
2019-02-05T19:18:37.075Z,40.20
2019-02-05T19:21:06.036Z,44.93
2019-02-05T19:23:44.551Z,41.57
2019-02-05T19:26:22.184Z,43.67
2019-02-05T19:28:52.970Z,43.40
2019-02-05T19:31:26.507Z,42.40
2019-02-05T19:33:58.751Z,45.47
2019-02-05T19:36:30.725Z,44.57
2019-02-05T19:39:02.902Z,44.73
2019-02-05T19:41:42.322Z,44.07
2019-02-05T19:44:16.762Z,43.97
2019-02-05T19:46:55.656Z,47.27
2019-02-05T19:49:36.324Z,44.83
2019-02-05T19:52:05.680Z,45.20
2019-02-05T19:54:37.823Z,46.27
2019-02-05T19:57:06.280Z,45.93
2019-02-05T19:59:34.823Z,43.53
2019-02-05T20:02:03.749Z,46.73
2019-02-05T20:04:46.247Z,44.30
2019-02-05T20:07:14.430Z,45.90
2019-02-05T20:12:14.677Z,49.20
2019-02-05T20:14:44.267Z,47.33
2019-02-05T20:17:23.606Z,46.60
2019-02-05T20:19:51.636Z,50.10
2019-02-05T20:22:21.232Z,50.87
2019-02-05T20:24:53.364Z,50.83
2019-02-05T20:27:21.776Z,52.03
2019-02-05T20:29:57.568Z,50.87
2019-02-05T20:32:36.559Z,49.43
2019-02-05T20:35:05.627Z,51.70
2019-02-05T20:37:34.243Z,53.07
2019-02-05T20:40:02.681Z,49.57
2019-02-05T20:42:56.430Z,54.27
2019-02-05T20:45:21.174Z,52.20
2019-02-05T20:47:49.294Z,49.43
2019-02-05T20:50:27.992Z,52.63
2019-02-05T20:53:14.260Z,47.63
2019-02-05T20:55:56.205Z,52.20
2019-02-05T20:59:01.975Z,52.70
2019-02-05T21:01:30.832Z,47.10
2019-02-05T21:04:02.964Z,52.43
2019-02-05T21:06:42.726Z,52.30
2019-02-05T21:09:31.382Z,53.27
2019-02-05T21:12:05.901Z,51.63
2019-02-05T21:14:41.606Z,47.00
2019-02-05T21:17:26.294Z,51.20
2019-02-05T21:19:58.605Z,50.03
2019-02-05T21:22:29.442Z,49.23
2019-02-05T21:25:12.872Z,54.13
2019-02-05T21:27:47.217Z,50.43
2019-02-05T21:30:18.838Z,50.77
2019-02-05T21:32:52.197Z,52.37
2019-02-05T21:35:21.846Z,52.03
2019-02-05T21:37:57.161Z,52.47
2019-02-05T21:40:26.686Z,46.17
2019-02-05T21:43:08.309Z,43.33
2019-02-05T21:45:37.493Z,51.43
2019-02-05T21:48:19.499Z,54.20
2019-02-05T21:51:11.827Z,54.00
2019-02-05T21:53:41.481Z,53.37
2019-02-05T21:56:12.690Z,47.50
2019-02-05T21:58:44.239Z,50.10
2019-02-05T22:01:14.385Z,53.57
2019-02-05T22:03:49.287Z,53.20
2019-02-05T22:06:17.596Z,53.00
2019-02-05T22:08:50.225Z,55.40
2019-02-05T22:11:24.785Z,49.43
2019-02-05T22:13:54.680Z,55.43
2019-02-05T22:16:27.884Z,51.17
2019-02-05T22:19:01.885Z,51.80
2019-02-05T22:21:33.936Z,55.97
2019-02-05T22:24:04.430Z,51.93
2019-02-05T22:26:35.008Z,39.67
2019-02-05T22:29:02.677Z,50.60
2019-02-05T22:31:34.461Z,53.37
2019-02-05T22:34:08.493Z,51.67
2019-02-05T22:36:43.102Z,54.30
2019-02-05T22:39:11.296Z,51.60
2019-02-05T22:41:41.040Z,52.20
2019-02-05T22:44:25.435Z,53.07
2019-02-05T22:46:54.941Z,49.20
2019-02-05T22:49:30.648Z,51.77
2019-02-05T22:52:01.094Z,51.53
2019-02-05T22:54:33.005Z,50.87
2019-02-05T22:57:05.603Z,48.33
2019-02-05T23:02:13.560Z,48.40
2019-02-05T23:05:28.808Z,46.50
2019-02-05T23:07:58.883Z,49.30
2019-02-05T23:11:22.078Z,48.70
2019-02-05T23:13:54.654Z,49.57
2019-02-05T23:16:33.804Z,47.17
2019-02-05T23:19:21.504Z,46.97
2019-02-05T23:21:53.772Z,45.13
2019-02-05T23:24:29.195Z,44.97
2019-02-05T23:26:57.655Z,48.50
2019-02-05T23:29:28.552Z,36.17
2019-02-05T23:31:56.953Z,49.17
2019-02-05T23:34:36.492Z,42.50
2019-02-05T23:37:15.523Z,38.47
2019-02-05T23:39:58.750Z,46.97
2019-02-05T23:42:26.888Z,45.87
2019-02-05T23:45:15.807Z,43.67
2019-02-05T23:47:44.275Z,44.57
2019-02-05T23:50:16.941Z,42.10
2019-02-05T23:58:37.030Z,46.17
